Time;durP1;ratioP1;P1;durP2;ratioP2;P2;SDS_P1;SDS_P2;PMS_P1;PMS_P2;Temp;Humidity;BMP_temperature;BMP_pressure;BME280_temperature;BME280_humidity;BME280_pressure;Samples;Min_cycle;Max_cycle;Signal;HPM_P1;HPM_P2
2022/01/09 00:00:15;;;;;;;4.50;3.25;;;;;;;4.16;92.19;98330.69;5026348;28;20365;-89
2022/01/09 00:02:49;;;;;;;5.32;3.05;;;;;;;4.07;91.94;98300.66;5026062;28;20050;-89
2022/01/09 00:05:21;;;;;;;3.67;2.78;;;;;;;4.13;92.36;98312.91;5025159;28;20404;-89
2022/01/09 00:07:57;;;;;;;4.00;2.58;;;;;;;4.25;91.65;98311.53;5025679;28;20408;-88
2022/01/09 00:16:54;;;;;;;2.72;2.15;;;;;;;4.23;91.69;98304.94;4939823;29;20059;-89
2022/01/09 00:19:48;;;;;;;3.10;1.70;;;;;;;4.38;90.78;98310.16;5024670;28;20072;-90
2022/01/09 00:22:32;;;;;;;2.83;1.60;;;;;;;4.29;92.44;98302.44;5027115;28;20102;-89
2022/01/09 00:25:05;;;;;;;2.60;1.63;;;;;;;4.26;92.02;98291.63;5025587;28;20068;-89
2022/01/09 00:27:40;;;;;;;1.40;1.27;;;;;;;4.23;91.43;98287.63;5024435;28;20109;-89
2022/01/09 00:30:15;;;;;;;2.17;1.38;;;;;;;4.12;92.21;98287.22;5023913;28;20058;-89
2022/01/09 00:33:03;;;;;;;2.90;1.77;;;;;;;4.20;92.36;98287.97;5024204;28;20354;-90
2022/01/09 00:35:38;;;;;;;2.55;1.50;;;;;;;4.21;92.44;98286.97;5025141;28;20053;-88
2022/01/09 00:38:33;;;;;;;1.33;1.23;;;;;;;4.22;91.88;98296.38;5024401;28;20130;-89
2022/01/09 00:41:09;;;;;;;2.05;1.08;;;;;;;4.27;92.49;98280.28;5024014;28;20046;-89
2022/01/09 00:43:46;;;;;;;1.40;1.13;;;;;;;4.13;92.38;98276.69;5025287;28;20088;-90
2022/01/09 00:46:25;;;;;;;1.33;1.10;;;;;;;4.26;92.59;98292.41;5024559;28;20053;-90
2022/01/09 00:49:03;;;;;;;0.90;0.90;;;;;;;4.15;92.89;98268.75;5023868;28;20046;-89
2022/01/09 00:51:32;;;;;;;1.23;1.13;;;;;;;4.20;92.94;98287.16;5005524;28;20058;-89
2022/01/09 00:54:11;;;;;;;2.20;1.20;;;;;;;4.18;93.55;98283.94;5005513;28;20058;-89
2022/01/09 00:56:49;;;;;;;1.58;1.25;;;;;;;4.07;93.80;98261.03;5003093;28;20053;-89
2022/01/09 01:02:07;;;;;;;2.30;1.27;;;;;;;4.04;94.21;98267.34;4998954;28;20061;-89
2022/01/09 01:04:36;;;;;;;2.85;1.30;;;;;;;4.00;94.85;98266.09;5002769;28;20118;-89
2022/01/09 01:07:03;;;;;;;2.22;2.00;;;;;;;4.07;94.32;98277.38;5002257;28;20540;-88
2022/01/09 01:09:31;;;;;;;1.73;1.15;;;;;;;4.03;94.91;98275.28;5001917;28;20043;-89
2022/01/09 01:12:02;;;;;;;0.90;0.80;;;;;;;4.16;95.20;98273.75;5001650;28;20049;-88
2022/01/09 01:14:36;;;;;;;1.15;0.52;;;;;;;4.17;95.15;98280.53;5001662;28;20575;-89
2022/01/09 01:17:04;;;;;;;0.77;0.77;;;;;;;4.05;95.03;98258.63;5003022;28;20073;-88
2022/01/09 01:19:44;;;;;;;1.98;0.80;;;;;;;4.17;95.04;98266.78;5001877;28;20047;-88
2022/01/09 01:22:11;;;;;;;0.80;0.60;;;;;;;4.21;95.47;98271.47;5002153;28;20073;-88
2022/01/09 01:24:39;;;;;;;2.08;0.50;;;;;;;4.23;94.78;98272.09;5002138;28;20043;-88
2022/01/09 01:27:10;;;;;;;1.63;0.70;;;;;;;4.05;95.35;98253.44;5001635;28;20050;-87
2022/01/09 01:29:38;;;;;;;0.65;0.40;;;;;;;4.15;95.45;98250.63;5001952;28;20586;-88
2022/01/09 01:32:11;;;;;;;1.15;0.82;;;;;;;4.27;96.08;98277.69;5001264;28;20436;-88
2022/01/09 01:34:39;;;;;;;1.25;1.02;;;;;;;4.29;96.02;98263.59;5000713;28;20062;-88
2022/01/09 01:37:07;;;;;;;1.48;1.25;;;;;;;4.32;96.35;98267.63;5001524;28;20050;-88
2022/01/09 01:39:34;;;;;;;1.42;1.13;;;;;;;4.37;96.53;98267.09;4999733;28;20054;-88
2022/01/09 01:42:03;;;;;;;3.05;0.82;;;;;;;4.37;96.09;98267.91;5001226;28;20050;-88
2022/01/09 01:44:39;;;;;;;1.75;1.65;;;;;;;4.35;96.41;98259.53;5000683;28;20081;-87
2022/01/09 01:47:09;;;;;;;2.97;2.20;;;;;;;4.50;96.28;98277.69;5000540;28;20125;-88
2022/01/09 01:49:36;;;;;;;2.90;2.70;;;;;;;4.53;96.37;98261.81;5001549;28;20060;-88
2022/01/09 01:52:05;;;;;;;4.15;2.88;;;;;;;4.62;97.34;98276.31;5001110;28;20046;-89
2022/01/09 01:54:44;;;;;;;4.68;3.40;;;;;;;4.77;97.26;98284.09;5000793;28;20481;-89
2022/01/09 01:57:13;;;;;;;6.22;4.18;;;;;;;4.86;97.34;98304.56;5001160;28;20074;-89
2022/01/09 01:59:42;;;;;;;7.70;5.15;;;;;;;4.77;97.13;98295.25;5001425;28;20105;-89
2022/01/09 02:02:11;;;;;;;11.13;6.22;;;;;;;4.92;97.12;98296.09;5001683;28;20046;-89
2022/01/09 02:04:40;;;;;;;7.47;5.22;;;;;;;4.96;97.02;98309.50;5001486;28;20402;-89
2022/01/09 02:07:14;;;;;;;7.05;4.90;;;;;;;5.01;96.98;98327.91;4999743;28;20081;-89
2022/01/09 02:09:41;;;;;;;4.15;3.65;;;;;;;4.82;95.01;98333.59;5003136;28;20050;-89
2022/01/09 02:12:10;;;;;;;4.28;2.97;;;;;;;4.81;94.17;98358.69;5000528;28;20071;-88
2022/01/09 02:14:38;;;;;;;3.38;2.50;;;;;;;4.77;94.34;98367.00;5000504;28;20034;-89
2022/01/09 02:17:06;;;;;;;4.43;2.92;;;;;;;4.61;94.75;98375.72;5001435;28;20054;-89
2022/01/09 02:19:36;;;;;;;2.67;1.88;;;;;;;4.49;93.55;98400.38;5000060;28;20051;-89
2022/01/09 02:22:07;;;;;;;1.55;1.10;;;;;;;4.33;92.51;98396.91;5000757;28;20546;-89
2022/01/09 02:24:34;;;;;;;2.28;1.38;;;;;;;4.20;93.63;98419.16;4999161;28;20112;-89
2022/01/09 02:27:05;;;;;;;2.72;1.50;;;;;;;4.11;94.11;98418.41;5001001;28;20426;-89
2022/01/09 02:29:45;;;;;;;2.72;1.67;;;;;;;4.13;94.63;98463.03;4998588;28;20069;-89
2022/01/09 02:32:16;;;;;;;4.00;1.77;;;;;;;3.98;94.27;98460.31;5000109;28;20112;-89
2022/01/09 02:34:46;;;;;;;3.35;1.75;;;;;;;3.94;95.00;98463.41;4999729;28;20047;-89
2022/01/09 02:39:55;;;;;;;3.87;1.60;;;;;;;3.71;94.50;98493.56;4996034;28;20058;-89
2022/01/09 02:42:32;;;;;;;5.50;2.63;;;;;;;3.64;95.57;98494.22;4999692;28;20061;-89
2022/01/09 02:45:05;;;;;;;4.68;1.60;;;;;;;3.82;96.33;98521.66;5000829;28;20062;-89
2022/01/09 02:47:35;;;;;;;5.88;2.58;;;;;;;3.77;95.73;98519.59;5000575;28;20073;-88
2022/01/09 02:50:11;;;;;;;4.30;1.92;;;;;;;3.90;95.75;98539.75;5000689;28;20112;-87
2022/01/09 02:52:56;;;;;;;9.25;2.92;;;;;;;3.81;96.21;98514.84;5001290;28;20054;-89
2022/01/09 02:55:52;;;;;;;7.93;3.03;;;;;;;3.96;95.96;98546.84;4999722;28;20096;-89
2022/01/09 02:58:37;;;;;;;8.55;2.92;;;;;;;3.96;96.07;98547.66;4998793;28;20101;-88
2022/01/09 03:01:14;;;;;;;10.77;3.50;;;;;;;3.91;96.08;98546.53;4998984;28;20065;-87
2022/01/09 03:03:46;;;;;;;8.70;4.03;;;;;;;4.04;96.17;98556.41;4999202;28;20058;-87
2022/01/09 03:06:13;;;;;;;16.17;4.25;;;;;;;4.16;94.97;98571.41;5000077;28;20149;-88
2022/01/09 03:08:46;;;;;;;16.00;4.03;;;;;;;4.11;94.56;98571.09;4999123;28;20064;-88
2022/01/09 03:11:22;;;;;;;13.73;4.07;;;;;;;4.17;95.32;98567.84;4999816;28;20490;-89
2022/01/09 03:14:07;;;;;;;16.05;4.68;;;;;;;4.35;95.01;98596.09;4999533;28;20085;-88
2022/01/09 03:16:45;;;;;;;15.05;4.20;;;;;;;4.24;95.18;98583.53;5000948;28;20309;-90
2022/01/09 03:19:29;;;;;;;21.63;5.32;;;;;;;4.28;95.13;98590.78;5000106;28;20042;-89
2022/01/09 03:22:03;;;;;;;23.50;5.00;;;;;;;4.42;94.78;98615.19;5000322;28;20052;-89
2022/01/09 03:24:50;;;;;;;;;;;;;;;;;;;;;
2022/01/09 03:27:26;;;;;;;17.73;5.25;;;;;;;4.47;94.82;98648.38;5000407;28;20150;-89
2022/01/09 03:29:54;;;;;;;19.38;4.70;;;;;;;4.42;94.06;98637.69;5000500;28;20507;-89
2022/01/09 03:32:29;;;;;;;12.43;4.22;;;;;;;4.36;93.16;98628.78;5000171;28;20065;-88
2022/01/09 03:35:01;;;;;;;11.82;4.30;;;;;;;4.26;93.61;98628.97;5000242;28;20077;-88
2022/01/09 03:37:31;;;;;;;17.95;4.50;;;;;;;4.30;93.85;98660.53;5000716;28;20072;-88
2022/01/09 03:40:02;;;;;;;18.00;4.40;;;;;;;4.36;93.45;98678.00;4999769;28;20046;-88
2022/01/09 03:42:29;;;;;;;20.63;4.63;;;;;;;4.23;93.92;98650.03;5004891;28;20051;-88
2022/01/09 03:44:58;;;;;;;17.80;4.63;;;;;;;4.37;93.70;98679.59;5002563;28;20054;-88
2022/01/09 03:47:25;;;;;;;14.40;5.00;;;;;;;4.37;94.66;98673.63;5002628;28;20050;-88
2022/01/09 03:49:52;;;;;;;19.67;5.43;;;;;;;4.33;95.26;98679.13;5003517;28;20080;-88
2022/01/09 03:52:27;;;;;;;21.95;5.68;;;;;;;4.46;95.63;98695.94;5002630;28;20444;-89
2022/01/09 03:54:57;;;;;;;20.45;5.53;;;;;;;4.34;95.85;98680.75;5002022;28;20104;-89
2022/01/09 03:57:33;;;;;;;22.23;6.47;;;;;;;4.47;95.64;98705.34;5001873;28;20070;-88
2022/01/09 04:00:05;;;;;;;22.58;6.32;;;;;;;4.46;96.11;98690.78;5002188;28;20145;-88
2022/01/09 04:02:37;;;;;;;27.35;8.23;;;;;;;4.57;96.17;98690.44;5002416;28;20070;-87
2022/01/09 04:05:04;;;;;;;28.75;7.88;;;;;;;4.54;96.11;98695.94;5002413;28;20108;-89
2022/01/09 04:07:36;;;;;;;39.15;9.05;;;;;;;4.56;96.36;98691.41;5002375;28;20061;-89
2022/01/09 04:10:05;;;;;;;30.02;9.27;;;;;;;4.53;96.45;98710.69;5002960;28;20049;-89
2022/01/09 04:12:58;;;;;;;29.33;8.63;;;;;;;4.52;97.04;98716.03;5002511;28;20165;-89
2022/01/09 04:15:30;;;;;;;28.73;8.60;;;;;;;4.61;96.75;98735.75;5001605;28;20093;-88
2022/01/09 04:18:00;;;;;;;33.67;8.70;;;;;;;4.59;96.62;98727.34;5001950;28;20054;-88
2022/01/09 04:20:30;;;;;;;27.48;8.13;;;;;;;4.66;96.56;98751.63;5001777;28;20034;-88
2022/01/09 04:22:58;;;;;;;44.88;9.65;;;;;;;4.59;96.56;98748.88;5002502;28;20050;-89
2022/01/09 04:25:25;;;;;;;33.15;8.48;;;;;;;4.63;96.13;98745.00;5002745;28;20056;-88
2022/01/09 04:27:56;;;;;;;24.13;7.63;;;;;;;4.76;95.86;98760.00;5001220;28;20046;-89
2022/01/09 04:30:25;;;;;;;31.85;7.90;;;;;;;4.70;95.14;98770.25;5001682;28;20146;-89
2022/01/09 04:32:54;;;;;;;33.47;9.70;;;;;;;4.75;94.45;98789.47;5001121;28;20057;-88
2022/01/09 04:35:28;;;;;;;37.65;7.70;;;;;;;4.80;94.27;98792.41;5002504;28;20484;-88
2022/01/09 04:37:55;;;;;;;32.20;8.52;;;;;;;4.71;94.21;98780.44;5001534;28;20464;-89
2022/01/09 04:40:25;;;;;;;29.42;8.93;;;;;;;4.82;94.05;98810.38;5001354;28;20050;-88
2022/01/09 04:42:58;;;;;;;31.58;7.25;;;;;;;4.79;94.14;98816.69;5000048;28;20054;-89
2022/01/09 04:45:29;;;;;;;26.13;7.85;;;;;;;4.82;93.43;98831.91;5000557;28;20071;-88
2022/01/09 04:48:04;;;;;;;32.05;9.07;;;;;;;4.89;92.67;98832.06;5000252;28;20445;-88
2022/01/09 04:50:37;;;;;;;25.75;6.72;;;;;;;4.78;92.51;98838.38;5000478;28;20050;-88
2022/01/09 04:53:07;;;;;;;26.10;7.43;;;;;;;4.74;93.17;98850.03;4999989;28;20553;-88
2022/01/09 04:55:35;;;;;;;17.48;6.78;;;;;;;4.91;92.26;98862.03;5000551;28;20421;-89
2022/01/09 04:58:06;;;;;;;31.23;7.22;;;;;;;4.83;92.42;98858.63;5001858;28;20057;-87
2022/01/09 05:00:33;;;;;;;21.63;7.07;;;;;;;4.77;91.59;98860.09;5000916;28;20073;-88
2022/01/09 05:03:06;;;;;;;24.05;7.03;;;;;;;4.89;91.96;98887.31;5000104;28;20061;-90
2022/01/09 05:08:51;;;;;;;24.40;6.30;;;;;;;4.85;91.92;98898.97;4998648;28;20084;-88
2022/01/09 05:11:21;;;;;;;24.70;6.78;;;;;;;4.82;91.32;98909.66;4999948;28;20136;-89
2022/01/09 05:13:50;;;;;;;24.20;7.00;;;;;;;4.83;91.99;98919.06;5000171;28;20066;-87
2022/01/09 05:16:19;;;;;;;24.83;6.88;;;;;;;4.77;92.09;98922.28;4999948;28;20051;-87
2022/01/09 05:18:52;;;;;;;25.02;6.75;;;;;;;4.80;92.06;98923.75;4997786;28;20084;-86
2022/01/09 05:21:19;;;;;;;24.92;5.93;;;;;;;4.82;91.98;98939.94;4998322;28;20105;-87
2022/01/09 05:23:46;;;;;;;25.90;6.63;;;;;;;4.65;92.35;98929.56;5000123;28;20076;-88
2022/01/09 05:26:13;;;;;;;22.95;6.00;;;;;;;4.80;91.43;98949.66;4998776;28;20114;-87
2022/01/09 05:28:40;;;;;;;21.80;6.65;;;;;;;4.84;91.06;98969.09;4998483;28;20051;-87
2022/01/09 05:31:44;;;;;;;23.15;6.65;;;;;;;4.80;90.98;98968.59;4998218;28;20051;-87
2022/01/09 05:40:28;;;;;;;21.83;5.93;;;;;;;4.85;89.63;98991.44;4996354;28;20058;-87
2022/01/09 05:46:31;;;;;;;21.23;5.53;;;;;;;4.77;89.63;99020.75;4984110;28;20137;-87
2022/01/09 05:48:58;;;;;;;17.38;5.47;;;;;;;4.78;89.77;99017.19;4999221;28;20073;-88
2022/01/09 05:51:49;;;;;;;30.23;6.05;;;;;;;4.74;89.48;99008.09;4997469;28;20122;-87
2022/01/09 06:01:05;;;;;;;;;;;;;;;;;;;;;
2022/01/09 06:07:01;;;;;;;16.90;5.15;;;;;;;4.68;88.88;99044.22;4974039;28;20058;-87
2022/01/09 06:16:19;;;;;;;16.23;5.30;;;;;;;4.71;88.02;99078.41;4991805;28;20089;-88
2022/01/09 06:28:06;;;;;;;18.45;6.07;;;;;;;4.54;88.25;99082.69;4956693;29;20066;-88
2022/01/09 06:34:21;;;;;;;;;;;;;;;;;;;;;
2022/01/09 06:40:19;;;;;;;19.75;5.60;;;;;;;4.58;88.12;99124.66;4963907;28;20121;-89
2022/01/09 06:42:46;;;;;;;13.50;5.25;;;;;;;4.71;87.56;99142.38;4997228;28;20157;-89
2022/01/09 06:45:13;;;;;;;13.32;5.13;;;;;;;4.69;88.36;99150.31;4998034;28;20120;-88
2022/01/09 06:47:40;;;;;;;13.50;5.25;;;;;;;4.60;88.34;99143.44;4998100;28;20047;-89
2022/01/09 06:50:10;;;;;;;17.15;5.20;;;;;;;4.63;87.89;99141.38;4997450;28;20161;-89
2022/01/09 06:52:43;;;;;;;20.90;4.78;;;;;;;4.56;87.51;99137.75;4996780;28;20065;-89
2022/01/09 06:55:11;;;;;;;20.90;5.65;;;;;;;4.54;88.19;99133.69;4997708;28;20112;-89
2022/01/09 06:57:41;;;;;;;25.73;5.18;;;;;;;4.69;86.94;99155.47;4998896;28;20075;-88
2022/01/09 07:00:17;;;;;;;15.80;4.93;;;;;;;4.63;86.29;99150.91;4997936;28;20481;-88
2022/01/09 07:02:45;;;;;;;18.27;5.35;;;;;;;4.62;86.41;99155.28;4998253;28;20047;-89
2022/01/09 07:05:13;;;;;;;16.92;5.47;;;;;;;4.60;87.10;99152.03;4999242;28;20063;-89
2022/01/09 07:07:49;;;;;;;21.38;5.53;;;;;;;4.74;86.16;99186.09;4999439;28;20154;-88
2022/01/09 07:10:21;;;;;;;19.50;6.10;;;;;;;4.59;87.46;99162.53;4999553;28;20103;-87
2022/01/09 07:12:50;;;;;;;;;;;;;;;4.69;88.20;99183.97;4998538;28;20061;-88
2022/01/09 07:15:17;;;;;;;21.52;7.40;;;;;;;4.60;88.03;99190.88;4957745;28;19937;-87
2022/01/09 07:17:44;;;;;;;21.75;6.35;;;;;;;4.57;87.95;99190.38;5002939;28;20050;-88
2022/01/09 07:20:12;;;;;;;13.80;6.10;;;;;;;4.56;88.34;99199.94;5003786;28;20101;-88
2022/01/09 07:22:38;;;;;;;20.27;6.78;;;;;;;4.60;88.59;99211.63;5004137;28;20046;-88
2022/01/09 07:25:06;;;;;;;20.40;7.15;;;;;;;4.59;88.60;99220.34;5003621;28;20054;-88
2022/01/09 07:27:33;;;;;;;24.88;7.53;;;;;;;4.56;88.48;99215.47;5003335;28;20137;-88
2022/01/09 07:30:02;;;;;;;17.55;6.40;;;;;;;4.51;88.06;99211.72;5003422;28;20062;-88
2022/01/09 07:32:29;;;;;;;26.95;7.28;;;;;;;4.52;87.95;99215.94;5004191;28;20378;-88
2022/01/09 07:34:57;;;;;;;23.52;7.78;;;;;;;4.60;88.71;99231.53;5002740;28;20042;-88
2022/01/09 07:37:30;;;;;;;24.42;7.50;;;;;;;4.33;89.64;99215.13;5002660;28;20061;-88
2022/01/09 07:39:57;;;;;;;17.15;6.80;;;;;;;4.38;89.13;99237.19;5003164;28;20046;-89
2022/01/09 07:42:24;;;;;;;19.90;6.68;;;;;;;4.50;88.80;99251.53;5003419;28;20061;-89
2022/01/09 07:44:51;;;;;;;18.25;5.90;;;;;;;4.40;88.60;99241.25;5002919;28;20054;-88
2022/01/09 07:47:22;;;;;;;21.35;6.57;;;;;;;4.50;88.67;99273.06;5003262;28;20129;-89
2022/01/09 07:49:49;;;;;;;15.65;5.82;;;;;;;4.41;87.82;99255.00;5004708;28;20456;-88
2022/01/09 07:52:16;;;;;;;21.60;5.38;;;;;;;4.43;88.01;99271.22;5003331;28;20418;-88
2022/01/09 07:54:44;;;;;;;19.88;6.00;;;;;;;4.25;88.60;99263.50;5003445;28;20080;-88
2022/01/09 07:57:11;;;;;;;22.33;5.70;;;;;;;4.25;88.74;99264.28;5003732;28;20162;-88
2022/01/09 07:59:38;;;;;;;18.42;6.00;;;;;;;4.32;88.96;99293.78;5003758;28;20043;-89
2022/01/09 08:02:05;;;;;;;17.40;6.95;;;;;;;4.38;89.08;99314.88;5003241;28;20145;-89
2022/01/09 08:04:33;;;;;;;18.52;6.22;;;;;;;4.34;88.79;99310.00;5003170;28;20046;-89
2022/01/09 08:07:00;;;;;;;20.85;6.93;;;;;;;4.21;89.36;99299.22;5003322;28;20059;-88
2022/01/09 08:09:27;;;;;;;19.02;7.32;;;;;;;4.19;89.78;99315.84;5003810;28;20149;-89
2022/01/09 08:11:55;;;;;;;18.73;6.90;;;;;;;4.15;89.73;99317.94;5003582;28;20054;-89
2022/01/09 08:14:23;;;;;;;15.90;7.05;;;;;;;4.13;89.50;99306.91;5001969;28;20128;-89
2022/01/09 08:16:50;;;;;;;18.88;7.55;;;;;;;4.11;89.91;99308.81;5001836;28;20054;-89
2022/01/09 08:19:22;;;;;;;20.40;6.32;;;;;;;4.13;89.64;99311.25;5004110;28;20078;-89
2022/01/09 08:21:50;;;;;;;;;;;;;;;4.22;89.85;99337.09;5005111;28;20412;-90
2022/01/09 08:24:17;;;;;;;17.30;5.20;;;;;;;4.05;89.55;99309.41;5003356;28;20443;-88
2022/01/09 08:26:44;;;;;;;14.15;5.57;;;;;;;4.05;89.38;99304.22;5002578;28;20049;-89
2022/01/09 08:29:11;;;;;;;11.35;5.03;;;;;;;4.22;89.71;99333.69;5002518;28;20073;-88
2022/01/09 08:31:38;;;;;;;12.65;6.22;;;;;;;4.10;89.71;99321.91;5003961;28;20432;-89
2022/01/09 08:34:05;;;;;;;15.68;5.53;;;;;;;4.16;89.85;99329.09;5002900;28;20054;-88
2022/01/09 08:36:33;;;;;;;17.58;5.30;;;;;;;4.22;88.85;99336.28;5004033;28;20146;-89
2022/01/09 08:39:05;;;;;;;19.73;5.93;;;;;;;4.38;89.05;99356.31;5003871;28;20050;-89
2022/01/09 08:41:32;;;;;;;18.13;6.18;;;;;;;4.22;88.98;99334.50;5003860;28;20062;-88
2022/01/09 08:44:00;;;;;;;17.98;6.30;;;;;;;4.36;88.94;99361.63;5003265;28;20497;-89
2022/01/09 08:46:27;;;;;;;20.52;5.78;;;;;;;4.28;89.00;99359.78;5003960;28;20058;-88
2022/01/09 08:48:54;;;;;;;18.00;5.55;;;;;;;4.33;89.60;99370.53;5004053;28;20081;-87
2022/01/09 08:51:24;;;;;;;14.93;5.60;;;;;;;4.19;89.22;99357.28;5003161;28;20100;-87
2022/01/09 08:53:51;;;;;;;17.48;5.32;;;;;;;4.33;87.97;99378.28;5003651;28;20120;-89
2022/01/09 08:56:48;;;;;;;19.45;5.45;;;;;;;4.18;88.52;99343.53;5004315;28;20042;-89
2022/01/09 08:59:19;;;;;;;12.38;4.90;;;;;;;4.27;89.27;99352.16;5000643;28;20576;-88
2022/01/09 09:01:50;;;;;;;22.15;6.28;;;;;;;4.25;88.89;99360.06;5004582;28;20047;-91
2022/01/09 09:11:10;;;;;;;13.82;6.03;;;;;;;4.60;88.47;99405.94;4841013;29;20516;-91
2022/01/09 09:13:58;;;;;;;12.80;6.15;;;;;;;4.70;87.75;99408.44;4873050;28;20056;-90
2022/01/09 09:23:40;;;;;;;17.58;6.10;;;;;;;4.80;86.36;99414.34;4985156;23;20057;-81
2022/01/09 09:26:06;;;;;;;13.55;5.78;;;;;;;4.88;86.86;99421.38;5000118;28;20157;-80
2022/01/09 09:28:33;;;;;;;15.10;6.60;;;;;;;4.87;86.86;99420.56;4999410;28;20078;-82
2022/01/09 09:31:00;;;;;;;15.60;7.13;;;;;;;4.97;86.52;99436.03;5000241;28;20047;-79
2022/01/09 09:33:26;;;;;;;15.95;5.60;;;;;;;4.97;86.24;99436.03;5001945;28;20065;-79
2022/01/09 09:35:56;;;;;;;15.48;5.68;;;;;;;4.75;86.53;99431.31;5009148;28;20134;-79
2022/01/09 09:38:23;;;;;;;16.92;5.72;;;;;;;4.79;87.75;99440.41;5000864;28;20058;-79
2022/01/09 09:40:49;;;;;;;13.43;5.70;;;;;;;4.82;86.84;99448.72;4997708;28;20085;-79
2022/01/09 09:43:19;;;;;;;15.00;6.07;;;;;;;4.76;86.94;99451.88;4997883;28;20109;-79
2022/01/09 09:45:46;;;;;;;14.40;6.28;;;;;;;4.81;86.73;99441.91;4997232;28;20050;-79
2022/01/09 09:48:12;;;;;;;18.58;6.35;;;;;;;4.82;86.70;99456.47;4995399;28;20046;-79
2022/01/09 09:50:39;;;;;;;16.77;6.28;;;;;;;4.81;87.23;99465.22;5001393;28;20042;-80
2022/01/09 09:53:08;;;;;;;13.02;5.88;;;;;;;4.87;87.07;99472.41;5015977;28;20053;-80
2022/01/09 09:55:34;;;;;;;17.50;5.90;;;;;;;4.75;87.15;99470.16;5009037;28;20070;-80
2022/01/09 09:58:01;;;;;;;18.00;6.45;;;;;;;4.68;87.29;99472.56;5001148;28;20054;-81
2022/01/09 10:00:28;;;;;;;16.77;6.03;;;;;;;4.71;87.54;99482.63;5000518;28;20396;-82
2022/01/09 10:02:57;;;;;;;18.80;6.05;;;;;;;4.72;87.28;99486.84;5001835;28;20497;-82
2022/01/09 10:05:25;;;;;;;15.32;5.82;;;;;;;4.66;87.69;99484.84;5004524;28;20504;-82
2022/01/09 10:07:54;;;;;;;12.38;5.50;;;;;;;4.76;86.66;99501.13;5007809;28;20058;-82
2022/01/09 10:10:31;;;;;;;11.95;5.50;;;;;;;4.66;86.46;99506.41;5014086;28;20129;-81
2022/01/09 10:13:08;;;;;;;12.93;5.45;;;;;;;4.59;86.71;99494.16;5022897;28;20049;-82
2022/01/09 10:15:46;;;;;;;12.75;6.07;;;;;;;4.63;87.17;99501.50;5031982;28;20512;-81
2022/01/09 10:18:13;;;;;;;14.60;5.40;;;;;;;4.64;88.12;99508.31;5022275;28;20070;-81
2022/01/09 10:20:40;;;;;;;16.60;5.47;;;;;;;4.72;86.96;99511.97;5021541;28;20042;-80
2022/01/09 10:23:07;;;;;;;13.23;5.43;;;;;;;4.72;87.03;99512.78;5021686;28;20074;-82
2022/01/09 10:25:37;;;;;;;19.30;6.70;;;;;;;4.82;87.08;99523.88;5017894;28;20069;-80
2022/01/09 10:28:07;;;;;;;13.90;5.72;;;;;;;4.88;86.44;99520.69;5013743;28;20078;-81
2022/01/09 10:30:40;;;;;;;17.27;5.38;;;;;;;4.85;86.68;99526.16;5002523;28;20077;-81
2022/01/09 10:33:07;;;;;;;;;;;;;;;4.85;87.18;99533.94;5013022;28;20069;-81
2022/01/09 10:35:35;;;;;;;16.30;6.53;;;;;;;4.77;87.52;99538.22;5001877;28;19922;-80
2022/01/09 10:38:12;;;;;;;10.07;5.65;;;;;;;4.79;86.60;99541.47;5014172;28;20053;-79
2022/01/09 10:40:43;;;;;;;16.33;6.30;;;;;;;4.77;87.03;99548.59;4997875;28;20042;-79
2022/01/09 10:43:12;;;;;;;15.68;6.03;;;;;;;4.75;87.13;99551.31;4997873;28;20137;-78
2022/01/09 10:45:43;;;;;;;18.98;6.10;;;;;;;4.75;87.31;99555.69;4998520;28;20092;-81
2022/01/09 10:48:13;;;;;;;17.50;5.85;;;;;;;4.69;86.57;99545.94;5000589;28;20070;-79
2022/01/09 10:50:42;;;;;;;16.60;7.40;;;;;;;4.75;87.04;99556.50;4999779;28;20046;-79
2022/01/09 10:53:24;;;;;;;17.25;5.80;;;;;;;4.70;86.70;99553.56;5000416;28;20057;-79
2022/01/09 10:56:10;;;;;;;13.02;5.90;;;;;;;4.75;87.35;99571.25;5004404;28;20066;-80
2022/01/09 10:58:40;;;;;;;13.18;6.15;;;;;;;4.77;88.03;99559.78;5003597;28;20085;-79
2022/01/09 11:01:13;;;;;;;15.55;6.10;;;;;;;4.76;87.77;99578.06;5005584;28;20124;-78
2022/01/09 11:03:41;;;;;;;13.98;5.90;;;;;;;4.68;86.86;99580.59;5016224;28;20054;-79
2022/01/09 11:06:12;;;;;;;15.60;6.55;;;;;;;4.69;87.55;99572.66;5026800;28;20080;-78
2022/01/09 11:08:41;;;;;;;17.23;8.30;;;;;;;4.74;88.12;99583.38;5027434;28;20050;-79
2022/01/09 11:11:19;;;;;;;13.05;6.40;;;;;;;4.78;88.39;99582.13;5012849;28;20078;-80
2022/01/09 11:13:51;;;;;;;19.25;5.47;;;;;;;4.87;88.04;99583.88;5004755;28;20054;-80
2022/01/09 11:16:33;;;;;;;16.52;6.50;;;;;;;4.94;87.63;99576.34;5007205;28;20076;-81
2022/01/09 11:19:02;;;;;;;13.60;6.20;;;;;;;5.10;87.36;99581.69;5007477;28;20401;-80
2022/01/09 11:21:29;;;;;;;19.05;6.43;;;;;;;5.15;87.32;99582.06;5009178;28;20336;-80
2022/01/09 11:24:09;;;;;;;17.65;6.40;;;;;;;5.05;86.52;99585.69;5008221;28;20050;-79
2022/01/09 11:26:45;;;;;;;13.32;5.97;;;;;;;5.01;86.73;99590.34;5011998;28;20082;-80
2022/01/09 11:29:16;;;;;;;13.52;6.63;;;;;;;5.02;86.76;99585.97;5027182;28;20105;-81
2022/01/09 11:31:52;;;;;;;13.68;5.65;;;;;;;5.00;85.73;99583.53;5026686;28;20050;-80
2022/01/09 11:34:29;;;;;;;12.63;6.22;;;;;;;5.04;86.78;99595.25;5026542;28;20081;-78
2022/01/09 11:37:08;;;;;;;15.40;6.43;;;;;;;5.14;86.90;99587.41;5027613;28;20054;-79
2022/01/09 11:39:36;;;;;;;20.50;7.20;;;;;;;5.16;87.02;99581.13;5026703;28;20070;-80
2022/01/09 11:42:09;;;;;;;12.90;6.25;;;;;;;5.18;86.28;99594.75;5012229;28;20074;-80
2022/01/09 11:44:35;;;;;;;;;;;;;;;5.33;86.27;99595.84;5007593;28;20074;-79
2022/01/09 11:47:04;;;;;;;14.60;6.32;;;;;;;5.36;85.27;99602.53;5006905;28;19972;-79
2022/01/09 11:49:38;;;;;;;15.18;6.50;;;;;;;5.11;86.49;99595.47;5006807;28;20081;-79
2022/01/09 11:52:05;;;;;;;15.25;5.93;;;;;;;5.10;86.18;99601.63;5006627;28;20089;-78
2022/01/09 11:54:48;;;;;;;18.83;6.25;;;;;;;5.09;86.53;99603.41;5007160;28;20130;-80
2022/01/09 11:57:20;;;;;;;15.80;6.00;;;;;;;5.23;86.43;99607.25;4999711;28;20057;-80
2022/01/09 11:59:51;;;;;;;16.17;6.22;;;;;;;5.33;86.07;99608.81;4999327;28;20046;-80
2022/01/09 12:02:32;;;;;;;15.43;6.35;;;;;;;5.41;86.00;99607.28;5002345;28;20042;-79
2022/01/09 12:05:01;;;;;;;15.38;6.18;;;;;;;5.53;85.99;99604.31;5006670;28;20070;-78
2022/01/09 12:08:09;;;;;;;15.43;5.97;;;;;;;5.52;84.68;99600.09;5004453;28;20405;-81
2022/01/09 12:10:53;;;;;;;15.27;6.55;;;;;;;5.67;85.10;99602.97;5002954;28;20144;-80
2022/01/09 12:13:53;;;;;;;16.42;5.90;;;;;;;5.52;84.96;99594.91;5002554;28;20058;-80
2022/01/09 12:16:48;;;;;;;15.55;5.93;;;;;;;5.43;85.84;99600.97;5002531;28;20413;-81
2022/01/09 12:19:48;;;;;;;13.57;5.70;;;;;;;5.53;85.01;99604.31;5002764;28;20085;-82
2022/01/09 12:22:15;;;;;;;15.80;6.00;;;;;;;5.62;85.05;99606.03;5001640;28;20047;-80
2022/01/09 12:24:42;;;;;;;13.77;5.45;;;;;;;5.62;83.94;99616.41;5001603;28;20051;-80
2022/01/09 12:27:44;;;;;;;19.23;6.63;;;;;;;5.61;83.65;99609.59;5001036;28;20588;-81
2022/01/09 12:30:47;;;;;;;12.50;5.85;;;;;;;5.73;84.08;99620.53;5001138;28;20433;-81
2022/01/09 12:33:16;;;;;;;15.53;5.60;;;;;;;5.79;84.45;99617.34;5001033;28;20055;-81
2022/01/09 12:35:55;;;;;;;17.88;5.90;;;;;;;5.76;84.09;99619.41;5000444;28;20114;-81
2022/01/09 12:38:24;;;;;;;15.45;5.82;;;;;;;5.71;84.42;99621.63;5000463;28;20046;-81
2022/01/09 12:40:56;;;;;;;16.33;5.30;;;;;;;5.53;84.42;99629.44;5003826;28;20065;-81
2022/01/09 12:43:24;;;;;;;17.17;5.82;;;;;;;5.54;84.32;99616.31;4998945;28;20610;-81
2022/01/09 12:45:53;;;;;;;14.93;5.95;;;;;;;5.54;83.70;99626.72;5001155;28;20078;-82
2022/01/09 12:48:24;;;;;;;22.15;6.88;;;;;;;5.58;82.96;99617.66;5000756;28;20105;-81
2022/01/09 12:50:57;;;;;;;17.95;5.07;;;;;;;5.56;83.08;99622.19;5001337;28;20125;-80
2022/01/09 12:53:26;;;;;;;;;;;;;;;5.62;83.49;99625.97;4999217;28;20046;-81
2022/01/09 12:55:54;;;;;;;16.70;5.68;;;;;;;5.61;83.77;99630.34;5001691;28;19922;-80
2022/01/09 12:58:23;;;;;;;19.50;6.50;;;;;;;5.58;83.47;99629.81;4999610;28;20100;-80
2022/01/09 13:00:50;;;;;;;20.77;6.60;;;;;;;5.49;84.63;99636.72;5001666;28;20539;-80
2022/01/09 13:03:20;;;;;;;22.90;7.00;;;;;;;5.32;86.20;99635.72;5003691;28;20065;-81
2022/01/09 13:06:08;;;;;;;17.75;6.40;;;;;;;5.23;85.95;99617.63;5004018;28;20053;-80
2022/01/09 13:08:38;;;;;;;17.23;5.75;;;;;;;5.34;86.02;99631.22;5004314;28;20077;-81
2022/01/09 13:11:06;;;;;;;17.88;5.80;;;;;;;5.43;85.54;99637.28;5002017;28;20477;-83
2022/01/09 13:13:35;;;;;;;22.00;6.57;;;;;;;5.24;85.52;99640.00;5002186;28;20190;-80
2022/01/09 13:16:10;;;;;;;20.65;6.45;;;;;;;5.23;86.68;99638.38;4998319;28;20481;-81